createdAt,value
2018-11-04T00:00:39.433Z,41.90
2018-11-04T00:03:10.396Z,45.20
2018-11-04T00:05:40.568Z,43.70
2018-11-04T00:08:10.710Z,40.43
2018-11-04T00:10:41.524Z,44.40
2018-11-04T00:13:11.492Z,43.47
2018-11-04T00:15:42.877Z,45.53
2018-11-04T00:18:12.696Z,45.80
2018-11-04T00:20:46.921Z,45.03
2018-11-04T00:23:17.580Z,50.53
2018-11-04T00:25:47.787Z,49.10
2018-11-04T00:28:18.127Z,44.43
2018-11-04T00:30:47.910Z,46.70
2018-11-04T00:33:18.716Z,47.43
2018-11-04T00:35:49.958Z,49.53
2018-11-04T00:38:19.966Z,55.03
2018-11-04T00:40:50.808Z,56.73
2018-11-04T00:43:20.634Z,50.10
2018-11-04T00:45:50.440Z,47.53
2018-11-04T00:48:21.484Z,51.17
2018-11-04T00:50:53.294Z,47.83
2018-11-04T00:53:25.216Z,45.13
2018-11-04T00:55:56.781Z,40.57
2018-11-04T00:58:27.973Z,47.47
2018-11-04T01:00:59.434Z,44.27
2018-11-04T01:03:29.353Z,45.60
2018-11-04T01:05:59.094Z,45.53
2018-11-04T01:08:30.383Z,49.77
2018-11-04T01:11:02.038Z,49.57
2018-11-04T01:13:32.318Z,40.27
2018-11-04T01:16:03.131Z,44.10
2018-11-04T01:18:33.289Z,48.93
2018-11-04T01:21:03.516Z,46.70
2018-11-04T01:23:33.690Z,45.80
2018-11-04T01:26:05.125Z,46.40
2018-11-04T01:28:36.045Z,44.17
2018-11-04T01:31:07.660Z,42.10
2018-11-04T01:33:37.988Z,39.80
2018-11-04T01:37:27.341Z,46.60
2018-11-04T01:39:59.184Z,50.70
2018-11-04T01:42:30.950Z,45.47
2018-11-04T01:45:02.084Z,40.03
2018-11-04T01:47:33.390Z,40.67
2018-11-04T01:50:03.642Z,46.50
2018-11-04T01:52:33.838Z,41.00
2018-11-04T01:55:04.137Z,45.67
2018-11-04T01:57:35.423Z,44.90
2018-11-04T02:00:06.951Z,43.63
2018-11-04T02:02:37.209Z,42.93
2018-11-04T02:05:07.756Z,43.23
2018-11-04T02:07:37.452Z,41.33
2018-11-04T02:10:08.511Z,49.63
2018-11-04T02:12:38.268Z,38.67
2018-11-04T02:15:10.832Z,41.47
2018-11-04T02:17:41.861Z,38.80
2018-11-04T02:20:13.028Z,40.67
2018-11-04T02:22:43.339Z,41.50
2018-11-04T02:25:15.064Z,41.60
2018-11-04T02:27:45.205Z,46.17
2018-11-04T02:30:17.619Z,37.43
2018-11-04T02:32:47.753Z,43.00
2018-11-04T02:35:17.533Z,40.07
2018-11-04T02:37:47.992Z,44.03
2018-11-04T02:40:19.256Z,39.20
2018-11-04T02:42:50.955Z,35.60
2018-11-04T02:45:21.384Z,41.20
2018-11-04T02:47:51.636Z,40.00
2018-11-04T02:50:22.460Z,43.10
2018-11-04T02:52:55.903Z,41.03
2018-11-04T02:55:26.137Z,40.03
2018-11-04T02:57:56.258Z,39.13
2018-11-04T03:00:27.670Z,43.23
2018-11-04T03:02:57.389Z,37.17
2018-11-04T03:05:27.081Z,36.77
2018-11-04T03:07:57.191Z,45.83
2018-11-04T03:10:28.014Z,41.80
2018-11-04T03:12:59.739Z,46.10
2018-11-04T03:15:31.855Z,44.53
2018-11-04T03:18:02.097Z,42.47
2018-11-04T03:20:32.578Z,51.10
2018-11-04T03:23:02.344Z,50.03
2018-11-04T03:25:33.862Z,45.20
2018-11-04T03:28:04.908Z,40.13
2018-11-04T03:30:35.210Z,41.27
2018-11-04T03:33:06.894Z,42.70
2018-11-04T03:35:37.185Z,47.13
2018-11-04T03:38:08.499Z,42.43
2018-11-04T03:40:38.742Z,42.43
2018-11-04T03:43:10.170Z,47.37
2018-11-04T03:45:41.228Z,51.97
2018-11-04T03:48:12.179Z,49.07
2018-11-04T03:50:42.579Z,44.60
2018-11-04T03:53:12.795Z,48.40
2018-11-04T03:55:43.165Z,48.57
2018-11-04T03:58:13.605Z,48.20
2018-11-04T04:00:43.581Z,44.73
2018-11-04T04:03:13.260Z,43.97
2018-11-04T04:05:43.634Z,44.77
2018-11-04T04:08:13.335Z,40.97
2018-11-04T04:10:48.390Z,43.00
2018-11-04T04:13:18.169Z,45.17
2018-11-04T04:15:48.328Z,36.70
2018-11-04T04:18:18.433Z,42.03
2018-11-04T04:20:49.273Z,40.93
2018-11-04T04:23:20.188Z,37.70
2018-11-04T04:25:51.039Z,42.27
2018-11-04T04:28:22.563Z,40.57
2018-11-04T04:30:54.337Z,43.33
2018-11-04T04:33:24.159Z,38.67
2018-11-04T04:35:57.110Z,39.73
2018-11-04T04:38:27.066Z,37.17
2018-11-04T04:40:57.051Z,37.70
2018-11-04T04:43:27.484Z,40.63
2018-11-04T04:45:57.395Z,36.83
2018-11-04T04:48:29.246Z,40.03
2018-11-04T04:51:00.512Z,38.27
2018-11-04T04:53:30.571Z,34.03
2018-11-04T04:57:03.969Z,31.80
2018-11-04T04:59:33.696Z,32.77
2018-11-04T05:02:04.510Z,31.53
2018-11-04T05:09:20.635Z,32.80
2018-11-04T05:11:50.548Z,32.57
2018-11-04T05:14:20.797Z,32.87
2018-11-04T05:16:50.784Z,32.10
2018-11-04T05:19:21.823Z,32.83
2018-11-04T05:21:52.392Z,28.53
2018-11-04T05:24:22.961Z,29.97
2018-11-04T05:26:52.851Z,32.20
2018-11-04T05:29:23.022Z,36.77
2018-11-04T05:31:52.936Z,32.50
2018-11-04T05:34:22.740Z,34.70
2018-11-04T05:36:52.406Z,29.03
2018-11-04T05:39:22.185Z,30.23
2018-11-04T05:41:51.995Z,35.33
2018-11-04T05:44:21.787Z,33.00
2018-11-04T05:46:51.967Z,34.47
2018-11-04T05:49:21.697Z,31.93
2018-11-04T05:51:51.874Z,35.80
2018-11-04T05:54:21.698Z,34.23
2018-11-04T05:56:51.736Z,37.60
2018-11-04T05:59:24.041Z,30.27
2018-11-04T06:01:53.893Z,33.23
2018-11-04T06:04:23.865Z,35.00
2018-11-04T06:06:53.778Z,35.70
2018-11-04T06:09:28.380Z,35.47
2018-11-04T06:11:58.319Z,35.33
2018-11-04T06:14:28.343Z,48.73
2018-11-04T06:16:58.505Z,34.23
2018-11-04T06:19:28.422Z,33.07
2018-11-04T06:21:58.606Z,33.33
2018-11-04T06:24:28.273Z,36.13
2018-11-04T06:26:59.192Z,38.77
2018-11-04T06:29:38.151Z,36.43
2018-11-04T06:32:08.286Z,38.93
2018-11-04T06:34:38.210Z,41.23
2018-11-04T06:37:08.385Z,41.60
2018-11-04T06:39:38.303Z,48.43
2018-11-04T06:42:08.167Z,45.53
2018-11-04T06:44:38.505Z,48.53
2018-11-04T06:47:08.503Z,46.00
2018-11-04T06:49:38.357Z,53.37
2018-11-04T06:52:08.714Z,48.10
2018-11-04T06:54:38.562Z,51.23
2018-11-04T06:57:08.556Z,47.37
2018-11-04T06:59:38.764Z,47.37
2018-11-04T07:02:08.761Z,44.07
2018-11-04T07:04:38.580Z,47.13
2018-11-04T07:07:08.796Z,42.40
2018-11-04T07:09:38.720Z,40.77
2018-11-04T07:12:08.624Z,39.33
2018-11-04T07:14:38.613Z,40.13
2018-11-04T07:17:08.620Z,41.17
2018-11-04T07:19:38.500Z,42.30
2018-11-04T07:22:08.460Z,39.50
2018-11-04T07:24:38.324Z,37.77
2018-11-04T07:27:08.575Z,33.10
2018-11-04T07:29:38.441Z,35.87
2018-11-04T07:32:09.091Z,33.63
2018-11-04T07:34:39.548Z,34.17
2018-11-04T07:37:10.230Z,34.37
2018-11-04T07:39:40.049Z,33.80
2018-11-04T07:42:10.642Z,31.23
2018-11-04T07:44:40.350Z,34.77
2018-11-04T07:47:10.087Z,32.57
2018-11-04T07:49:40.269Z,29.57
2018-11-04T07:52:10.070Z,36.03
2018-11-04T07:54:40.047Z,32.40
2018-11-04T07:57:10.489Z,35.07
2018-11-04T07:59:40.446Z,33.43
2018-11-04T08:02:10.607Z,40.30
2018-11-04T08:04:41.034Z,31.87
2018-11-04T08:07:11.126Z,34.87
2018-11-04T08:09:41.588Z,35.40
2018-11-04T08:12:12.359Z,36.47
2018-11-04T08:14:42.431Z,34.37
2018-11-04T08:17:12.761Z,38.53
2018-11-04T08:19:42.435Z,38.77
2018-11-04T08:22:12.213Z,34.93
2018-11-04T08:24:42.071Z,40.93
2018-11-04T08:27:11.996Z,35.70
2018-11-04T08:29:42.979Z,44.27
2018-11-04T08:32:13.301Z,38.43
2018-11-04T08:34:43.098Z,44.13
2018-11-04T08:37:13.621Z,40.67
2018-11-04T08:39:43.367Z,46.47
2018-11-04T08:42:13.061Z,44.47
2018-11-04T08:44:43.041Z,46.23
2018-11-04T08:47:12.831Z,43.60
2018-11-04T08:49:42.646Z,46.30
2018-11-04T08:52:12.304Z,42.50
2018-11-04T08:54:42.096Z,44.67
2018-11-04T08:57:12.008Z,44.67
2018-11-04T08:59:42.428Z,44.23
2018-11-04T09:02:12.189Z,45.40
2018-11-04T09:04:41.851Z,41.90
2018-11-04T09:07:11.790Z,46.40
2018-11-04T09:09:41.495Z,44.90
2018-11-04T09:12:11.251Z,47.80
2018-11-04T09:14:41.827Z,56.43
2018-11-04T09:17:11.963Z,46.07
2018-11-04T09:19:41.615Z,53.00
2018-11-04T09:22:11.545Z,45.17
2018-11-04T09:24:41.332Z,45.57
2018-11-04T09:27:11.100Z,52.73
2018-11-04T09:29:41.228Z,48.13
2018-11-04T09:32:11.894Z,57.27
2018-11-04T09:34:41.741Z,55.57
2018-11-04T09:37:11.571Z,49.93
2018-11-04T09:39:42.089Z,52.37
2018-11-04T09:42:12.265Z,55.07
2018-11-04T09:44:42.941Z,65.20
2018-11-04T09:47:12.910Z,51.17
2018-11-04T09:49:42.757Z,56.50
2018-11-04T09:52:15.370Z,55.17
2018-11-04T09:54:45.137Z,54.03
2018-11-04T09:57:14.809Z,53.23
2018-11-04T09:59:45.259Z,53.33
2018-11-04T10:02:15.089Z,58.03
2018-11-04T10:04:50.654Z,61.30
2018-11-04T10:07:21.052Z,59.57
2018-11-04T10:09:51.348Z,54.07
2018-11-04T10:12:21.040Z,51.67
2018-11-04T10:14:51.799Z,53.93
2018-11-04T10:17:21.809Z,50.50
2018-11-04T10:19:51.806Z,55.33
2018-11-04T10:22:21.607Z,52.83
2018-11-04T10:24:51.609Z,54.53
2018-11-04T10:27:21.360Z,50.07
2018-11-04T10:29:51.539Z,47.33
2018-11-04T10:32:22.106Z,52.50
2018-11-04T10:34:52.423Z,49.37
2018-11-04T10:37:22.242Z,51.73
2018-11-04T10:39:51.976Z,53.27
2018-11-04T10:42:21.810Z,43.90
2018-11-04T10:44:51.643Z,49.63
2018-11-04T10:47:21.385Z,47.20
2018-11-04T10:49:51.487Z,51.97
2018-11-04T10:52:21.237Z,53.20
2018-11-04T10:54:51.204Z,53.03
2018-11-04T10:57:20.983Z,47.30
2018-11-04T10:59:51.075Z,51.30
2018-11-04T11:02:21.364Z,45.97
2018-11-04T11:04:51.168Z,46.07
2018-11-04T11:07:23.962Z,51.10
2018-11-04T11:09:54.041Z,51.87
2018-11-04T11:12:25.328Z,57.90
2018-11-04T11:14:55.978Z,51.63
2018-11-04T11:17:25.892Z,52.23
2018-11-04T11:19:55.794Z,51.03
2018-11-04T11:22:25.991Z,49.17
2018-11-04T11:24:55.764Z,50.30
2018-11-04T11:27:25.432Z,61.13
2018-11-04T11:29:55.461Z,56.20
2018-11-04T11:32:25.184Z,46.83
2018-11-04T11:34:55.004Z,49.57
2018-11-04T11:37:24.876Z,51.17
2018-11-04T11:39:54.655Z,47.20
2018-11-04T11:42:24.377Z,44.07
2018-11-04T11:44:55.033Z,47.37
2018-11-04T11:47:24.971Z,51.00
2018-11-04T11:49:54.749Z,47.20
2018-11-04T11:52:24.566Z,51.13
2018-11-04T11:54:54.327Z,52.13
2018-11-04T11:57:24.121Z,50.07
2018-11-04T11:59:54.247Z,51.37
2018-11-04T12:02:24.020Z,48.33
2018-11-04T12:04:53.916Z,48.73
2018-11-04T12:07:23.704Z,45.60
2018-11-04T12:09:53.611Z,51.90
2018-11-04T12:12:23.575Z,51.03
2018-11-04T12:14:53.284Z,50.50
2018-11-04T12:17:23.869Z,47.67
2018-11-04T12:19:54.521Z,47.20
2018-11-04T12:22:24.258Z,45.50
2018-11-04T12:24:54.044Z,45.80
2018-11-04T12:27:24.025Z,45.30
2018-11-04T12:29:55.336Z,49.97
2018-11-04T12:32:26.073Z,47.90
2018-11-04T12:34:55.751Z,48.40
2018-11-04T12:37:25.564Z,43.77
2018-11-04T12:39:55.392Z,53.43
2018-11-04T12:42:25.447Z,46.73
2018-11-04T12:44:55.252Z,44.87
2018-11-04T12:47:25.827Z,43.77
2018-11-04T12:49:56.003Z,44.27
2018-11-04T12:52:26.681Z,45.70
2018-11-04T12:54:56.464Z,42.77
2018-11-04T12:57:26.468Z,46.83
2018-11-04T12:59:56.203Z,44.30
2018-11-04T13:02:26.964Z,52.00
2018-11-04T13:04:57.804Z,42.90
2018-11-04T13:07:28.687Z,46.80
2018-11-04T13:09:58.510Z,40.27
2018-11-04T13:12:29.378Z,45.07
2018-11-04T13:14:59.657Z,44.43
2018-11-04T13:17:30.136Z,45.03
2018-11-04T13:20:00.652Z,39.87
2018-11-04T13:22:30.359Z,46.53
2018-11-04T13:25:00.086Z,41.80
2018-11-04T13:27:30.800Z,44.13
2018-11-04T13:30:00.539Z,43.90
2018-11-04T13:32:30.341Z,44.80
2018-11-04T13:35:00.290Z,45.00
2018-11-04T13:37:30.177Z,46.37
2018-11-04T13:40:00.194Z,43.77
2018-11-04T13:42:30.019Z,46.13
2018-11-04T13:45:00.069Z,44.83
2018-11-04T13:47:29.849Z,45.60
2018-11-04T13:49:59.638Z,45.67
2018-11-04T13:52:29.867Z,43.40
2018-11-04T13:54:59.770Z,47.03
2018-11-04T13:57:29.744Z,40.27
2018-11-04T13:59:59.920Z,40.93
2018-11-04T14:02:29.745Z,45.27
2018-11-04T14:04:59.655Z,44.60
2018-11-04T14:07:29.516Z,44.53
2018-11-04T14:10:00.131Z,44.33
2018-11-04T14:12:30.960Z,46.23
2018-11-04T14:15:05.857Z,43.80
2018-11-04T14:17:36.548Z,43.33
2018-11-04T14:20:11.005Z,43.90
2018-11-04T14:22:41.757Z,40.73
2018-11-04T14:25:13.047Z,45.87
2018-11-04T14:27:45.022Z,45.67
2018-11-04T14:30:16.739Z,49.57
2018-11-04T14:32:47.655Z,51.03
2018-11-04T14:35:18.196Z,46.80
2018-11-04T14:37:48.892Z,44.63
2018-11-04T14:40:19.296Z,50.40
2018-11-04T14:42:50.027Z,48.67
2018-11-04T14:45:21.341Z,46.73
2018-11-04T14:47:52.452Z,48.23
2018-11-04T14:50:23.175Z,49.87
2018-11-04T14:52:53.816Z,48.03
2018-11-04T14:55:24.845Z,47.80
2018-11-04T14:57:55.218Z,45.40
2018-11-04T15:00:25.907Z,48.50
2018-11-04T15:02:57.019Z,43.77
2018-11-04T15:05:27.375Z,45.27
2018-11-04T15:07:57.583Z,46.03
2018-11-04T15:10:27.896Z,43.57
2018-11-04T15:12:58.501Z,47.73
2018-11-04T15:15:29.019Z,46.30
2018-11-04T15:17:59.387Z,44.23
2018-11-04T15:20:29.632Z,44.13
2018-11-04T15:23:00.257Z,46.93
2018-11-04T15:25:30.628Z,47.67
2018-11-04T15:28:01.007Z,45.00
2018-11-04T15:30:31.295Z,49.17
2018-11-04T15:33:01.423Z,49.33
2018-11-04T15:35:32.105Z,49.40
2018-11-04T15:38:02.452Z,51.00
2018-11-04T15:40:32.732Z,49.63
2018-11-04T15:43:03.042Z,48.43
2018-11-04T15:45:33.279Z,50.23
2018-11-04T15:48:03.908Z,51.33
2018-11-04T15:50:34.289Z,60.40
2018-11-04T15:53:05.077Z,52.07
2018-11-04T15:55:35.584Z,51.57
2018-11-04T15:58:06.102Z,55.60
2018-11-04T16:00:36.828Z,52.57
2018-11-04T16:03:07.317Z,53.10
2018-11-04T16:05:37.860Z,58.33
2018-11-04T16:08:08.374Z,53.50
2018-11-04T16:10:39.652Z,56.57
2018-11-04T16:13:10.074Z,55.37
2018-11-04T16:15:40.388Z,52.57
2018-11-04T16:18:10.624Z,54.97
2018-11-04T16:20:41.281Z,50.33
2018-11-04T16:23:12.012Z,47.07
2018-11-04T16:25:42.486Z,51.50
2018-11-04T16:28:13.251Z,50.70
2018-11-04T16:30:43.590Z,52.27
2018-11-04T16:33:14.026Z,53.00
2018-11-04T16:35:44.743Z,54.33
2018-11-04T16:38:17.283Z,49.90
2018-11-04T16:40:49.061Z,47.00
2018-11-04T16:43:21.313Z,51.00
2018-11-04T16:45:54.953Z,50.07
2018-11-04T16:49:15.007Z,49.00
2018-11-04T16:51:45.000Z,51.77
2018-11-04T16:54:16.735Z,48.23
2018-11-04T16:56:47.502Z,47.70
2018-11-04T16:59:17.313Z,51.07
2018-11-04T17:01:47.014Z,47.43
2018-11-04T17:04:17.210Z,46.67
2018-11-04T17:06:46.980Z,60.43
2018-11-04T17:09:16.782Z,50.93
2018-11-04T17:11:52.169Z,48.93
2018-11-04T17:14:21.883Z,49.40
2018-11-04T17:16:53.422Z,51.43
2018-11-04T17:19:23.146Z,45.20
2018-11-04T17:21:52.999Z,47.53
2018-11-04T17:24:22.912Z,50.83
2018-11-04T17:26:52.750Z,52.10
2018-11-04T17:29:22.508Z,50.23
2018-11-04T17:31:52.282Z,55.53
2018-11-04T17:34:22.823Z,50.53
2018-11-04T17:36:52.604Z,52.80
2018-11-04T17:39:22.346Z,58.03
2018-11-04T17:41:52.238Z,56.37
2018-11-04T17:44:22.191Z,59.33
2018-11-04T17:46:52.393Z,58.80
2018-11-04T17:49:22.140Z,61.53
2018-11-04T17:51:52.253Z,61.27
2018-11-04T17:54:22.445Z,61.33
2018-11-04T17:56:52.295Z,62.63
2018-11-04T17:59:22.039Z,58.50
2018-11-04T18:01:57.212Z,61.60
2018-11-04T18:04:33.784Z,61.33
2018-11-04T18:07:05.295Z,69.47
2018-11-04T18:09:35.102Z,71.27
2018-11-04T18:12:06.298Z,64.73
2018-11-04T18:14:36.560Z,71.97
2018-11-04T18:17:06.911Z,66.63
2018-11-04T18:19:37.445Z,72.20
2018-11-04T18:22:08.591Z,66.73
2018-11-04T18:24:38.398Z,74.13
2018-11-04T18:27:08.195Z,72.97
2018-11-04T18:29:38.421Z,74.70
2018-11-04T18:32:31.537Z,66.90
2018-11-04T18:35:02.483Z,67.07
2018-11-04T18:37:32.221Z,73.07
2018-11-04T18:40:02.617Z,74.33
2018-11-04T18:42:54.292Z,69.17
2018-11-04T18:48:24.642Z,83.00
2018-11-04T18:50:56.299Z,83.77
2018-11-04T18:53:28.770Z,76.20
2018-11-04T18:56:01.313Z,72.87
2018-11-04T18:58:32.753Z,74.87
2018-11-04T19:01:04.727Z,71.50
2018-11-04T19:03:35.441Z,71.50
2018-11-04T19:06:07.255Z,76.87
2018-11-04T19:08:38.340Z,79.73
2018-11-04T19:11:10.230Z,74.43
2018-11-04T19:13:42.901Z,77.07
2018-11-04T19:16:17.779Z,75.50
2018-11-04T19:18:49.206Z,75.40
2018-11-04T19:21:18.982Z,80.80
2018-11-04T19:23:48.981Z,80.33
2018-11-04T19:26:19.970Z,76.57
2018-11-04T19:28:49.858Z,74.53
2018-11-04T19:31:20.957Z,78.10
2018-11-04T19:33:50.701Z,86.50
2018-11-04T19:36:21.305Z,78.50
2018-11-04T19:38:52.553Z,76.90
2018-11-04T19:41:22.747Z,78.40
2018-11-04T19:43:53.646Z,77.63
2018-11-04T19:46:23.460Z,79.47
2018-11-04T19:48:54.096Z,83.53
2018-11-04T19:51:23.869Z,76.77
2018-11-04T19:53:55.360Z,81.37
2018-11-04T19:56:26.962Z,80.97
2018-11-04T19:58:58.994Z,85.43
2018-11-04T20:01:32.331Z,84.07
2018-11-04T20:04:02.766Z,92.50
2018-11-04T20:06:33.431Z,80.40
2018-11-04T20:09:09.018Z,93.07
2018-11-04T20:11:38.895Z,81.07
2018-11-04T20:14:20.892Z,90.63
2018-11-04T20:16:53.136Z,91.57
2018-11-04T20:19:31.625Z,93.60
2018-11-04T20:22:03.588Z,85.53
2018-11-04T20:24:39.701Z,99.30
2018-11-04T20:27:11.878Z,101.80
2018-11-04T20:29:46.059Z,93.67
2018-11-04T20:32:22.290Z,99.93
2018-11-04T20:34:54.351Z,95.40
2018-11-04T20:37:25.116Z,97.43
2018-11-04T20:40:01.680Z,95.87
2018-11-04T20:42:34.924Z,101.30
2018-11-04T20:45:06.687Z,96.60
2018-11-04T20:47:46.401Z,96.67
2018-11-04T20:50:23.844Z,95.70
2018-11-04T20:52:54.950Z,108.90
2018-11-04T20:55:30.538Z,107.60
2018-11-04T20:58:07.289Z,106.30
2018-11-04T21:00:45.729Z,103.67
2018-11-04T21:03:18.515Z,103.47
2018-11-04T21:05:51.219Z,106.80
2018-11-04T21:08:22.714Z,113.30
2018-11-04T21:10:54.719Z,107.83
2018-11-04T21:13:25.295Z,104.30
2018-11-04T21:16:00.447Z,116.10
2018-11-04T21:18:31.838Z,113.30
2018-11-04T21:21:02.913Z,120.83
2018-11-04T21:23:33.802Z,113.93
2018-11-04T21:26:05.927Z,115.57
2018-11-04T21:28:37.576Z,115.30
2018-11-04T21:31:08.414Z,116.70
2018-11-04T21:33:39.615Z,115.33
2018-11-04T21:36:13.964Z,121.83
2018-11-04T21:38:45.909Z,113.93
2018-11-04T21:41:17.623Z,117.90
2018-11-04T21:43:49.833Z,121.87
2018-11-04T21:46:20.310Z,125.87
2018-11-04T21:48:51.230Z,118.43
2018-11-04T21:51:22.792Z,119.70
2018-11-04T21:53:57.215Z,121.13
2018-11-04T21:56:28.280Z,117.13
2018-11-04T21:58:58.849Z,122.70
2018-11-04T22:01:30.255Z,120.23
2018-11-04T22:04:01.932Z,122.33
2018-11-04T22:06:32.554Z,113.50
2018-11-04T22:09:04.367Z,124.93
2018-11-04T22:11:37.474Z,126.43
2018-11-04T22:14:08.493Z,127.30
2018-11-04T22:16:40.183Z,119.33
2018-11-04T22:19:11.309Z,132.17
2018-11-04T22:21:42.191Z,127.60
2018-11-04T22:24:13.102Z,125.27
2018-11-04T22:26:43.656Z,134.80
2018-11-04T22:29:19.390Z,129.80
2018-11-04T22:31:52.682Z,134.70
2018-11-04T22:34:25.546Z,143.10
2018-11-04T22:36:57.743Z,139.13
2018-11-04T22:39:28.957Z,133.40
2018-11-04T22:42:01.395Z,130.70
2018-11-04T22:44:33.040Z,142.67
2018-11-04T22:47:04.370Z,132.93
2018-11-04T22:49:35.744Z,144.33
2018-11-04T22:52:06.740Z,142.57
2018-11-04T22:54:38.097Z,137.97
2018-11-04T22:57:09.304Z,136.90
2018-11-04T22:59:40.679Z,134.27
2018-11-04T23:02:10.961Z,135.37
2018-11-04T23:04:46.090Z,135.33
2018-11-04T23:07:16.877Z,141.03
2018-11-04T23:09:48.426Z,143.27
2018-11-04T23:12:20.454Z,137.00
2018-11-04T23:14:51.912Z,137.10
2018-11-04T23:17:24.782Z,139.87
2018-11-04T23:19:55.360Z,150.77
2018-11-04T23:22:27.851Z,146.13
2018-11-04T23:24:59.378Z,145.93
2018-11-04T23:27:32.209Z,132.90
2018-11-04T23:30:03.638Z,141.23
2018-11-04T23:32:34.226Z,127.93
2018-11-04T23:35:05.378Z,144.43
2018-11-04T23:37:36.847Z,144.80
2018-11-04T23:40:09.189Z,145.80
2018-11-04T23:42:40.997Z,137.50
2018-11-04T23:45:14.433Z,137.97
2018-11-04T23:47:46.287Z,135.70
2018-11-04T23:50:18.652Z,139.03
2018-11-04T23:52:49.870Z,138.57
2018-11-04T23:55:20.936Z,139.30
2018-11-04T23:57:52.746Z,148.17
